Time;durP1;ratioP1;P1;durP2;ratioP2;P2;SDS_P1;SDS_P2;PMS_P1;PMS_P2;Temp;Humidity;BMP_temperature;BMP_pressure;BME280_temperature;BME280_humidity;BME280_pressure;Samples;Min_cycle;Max_cycle;Signal;HPM_P1;HPM_P2
2024/03/16 00:01:47;;;;;;;0.80;0.60;;;;;;;9.68;91.59;95404.00;5080035;28;20193;-77
2024/03/16 00:04:13;;;;;;;1.23;0.67;;;;;;;9.59;91.63;95413.44;5077288;28;20212;-77
2024/03/16 00:06:38;;;;;;;0.50;0.50;;;;;;;9.57;91.95;95412.78;5078091;28;20288;-77
2024/03/16 00:09:04;;;;;;;3.03;0.70;;;;;;;9.73;91.32;95400.00;5063827;28;20216;-77
2024/03/16 00:11:31;;;;;;;1.77;0.73;;;;;;;9.48;91.97;95403.28;5062836;28;20184;-77
2024/03/16 00:13:57;;;;;;;1.17;0.80;;;;;;;9.41;91.90;95402.22;5080332;28;20184;-77
2024/03/16 00:16:22;;;;;;;0.73;0.50;;;;;;;9.29;92.55;95391.25;5078345;28;20673;-77
2024/03/16 00:18:48;;;;;;;0.50;0.50;;;;;;;9.47;92.14;95399.88;5071697;28;20611;-77
2024/03/16 00:21:13;;;;;;;1.10;0.63;;;;;;;9.47;91.51;95404.25;5097240;28;20180;-77
2024/03/16 00:23:39;;;;;;;1.50;0.80;;;;;;;9.25;93.03;95408.81;5076739;28;20185;-77
2024/03/16 00:26:04;;;;;;;2.50;0.60;;;;;;;9.23;92.55;95405.56;5079556;28;20211;-77
2024/03/16 00:28:29;;;;;;;2.87;0.80;;;;;;;9.27;93.06;95406.91;5061422;28;20614;-77
2024/03/16 00:30:54;;;;;;;2.57;0.73;;;;;;;9.37;92.50;95401.72;5079982;28;20186;-77
2024/03/16 00:33:20;;;;;;;1.70;0.90;;;;;;;9.35;92.51;95401.81;5094562;28;20308;-77
2024/03/16 00:35:45;;;;;;;4.40;1.00;;;;;;;9.38;93.13;95410.28;5079225;28;20579;-77
2024/03/16 00:38:11;;;;;;;0.50;0.47;;;;;;;9.54;92.00;95402.69;5062918;28;20185;-77
2024/03/16 00:40:37;;;;;;;1.73;0.57;;;;;;;9.54;91.97;95397.50;5062766;28;20325;-77
2024/03/16 00:43:02;;;;;;;2.00;0.50;;;;;;;9.63;91.50;95392.28;5075799;28;20326;-77
2024/03/16 00:45:27;;;;;;;2.73;0.60;;;;;;;9.59;91.92;95390.13;5079503;28;20661;-77
2024/03/16 00:47:55;;;;;;;2.00;0.60;;;;;;;9.32;92.85;95401.31;5063527;28;20219;-78
2024/03/16 00:50:21;;;;;;;2.50;0.80;;;;;;;9.45;92.77;95408.75;5076963;28;20180;-77
2024/03/16 00:52:46;;;;;;;0.50;0.50;;;;;;;9.42;93.35;95411.63;5062333;28;20211;-77
2024/03/16 00:55:11;;;;;;;2.23;0.73;;;;;;;9.51;93.09;95408.16;5077290;28;20188;-77
2024/03/16 00:57:37;;;;;;;0.70;0.70;;;;;;;9.52;93.29;95405.44;5092969;28;20196;-78
2024/03/16 01:00:03;;;;;;;1.83;0.70;;;;;;;9.47;93.54;95404.25;5079528;28;20187;-78
2024/03/16 01:02:29;;;;;;;1.43;0.70;;;;;;;9.61;92.88;95406.34;5079180;28;20304;-77
2024/03/16 01:04:56;;;;;;;2.20;0.67;;;;;;;9.54;92.94;95405.28;5093436;28;20180;-77
2024/03/16 01:07:21;;;;;;;2.07;0.50;;;;;;;9.51;93.22;95408.97;5094228;28;20200;-77
2024/03/16 01:09:47;;;;;;;0.70;0.70;;;;;;;9.55;93.03;95405.16;5096251;28;20596;-77
2024/03/16 01:12:12;;;;;;;0.93;0.73;;;;;;;9.39;92.95;95406.75;5061569;28;20191;-77
2024/03/16 01:14:37;;;;;;;2.30;0.70;;;;;;;9.13;94.92;95403.97;5073585;28;20183;-77
2024/03/16 01:17:03;;;;;;;2.00;0.60;;;;;;;9.39;93.77;95398.97;5095087;28;20200;-77
2024/03/16 01:19:29;;;;;;;1.07;0.50;;;;;;;9.38;93.37;95398.16;5078688;28;20712;-77
2024/03/16 01:21:54;;;;;;;1.37;0.70;;;;;;;9.32;93.62;95388.34;5061548;28;20177;-77
2024/03/16 01:24:19;;;;;;;1.33;0.70;;;;;;;9.25;93.87;95390.69;5093456;28;20184;-78
2024/03/16 01:26:46;;;;;;;3.17;0.57;;;;;;;9.28;93.73;95393.00;5060941;28;20555;-78
2024/03/16 01:29:15;;;;;;;1.30;0.70;;;;;;;9.20;93.71;95384.31;5076743;28;20216;-77
2024/03/16 01:31:41;;;;;;;0.83;0.60;;;;;;;9.32;93.42;95391.75;5062428;28;20192;-77
2024/03/16 01:34:06;;;;;;;1.30;0.63;;;;;;;9.34;93.63;95397.59;5060267;28;20216;-77
2024/03/16 01:36:31;;;;;;;2.17;0.80;;;;;;;9.31;93.42;95403.09;5077599;28;20275;-78
2024/03/16 01:38:57;;;;;;;3.00;0.70;;;;;;;9.39;93.52;95396.38;5075623;28;20242;-77
2024/03/16 01:41:22;;;;;;;1.03;0.60;;;;;;;9.19;94.79;95405.97;5077532;28;20192;-77
2024/03/16 01:43:48;;;;;;;1.80;0.60;;;;;;;9.13;95.29;95394.44;5062809;28;20199;-78
2024/03/16 01:46:15;;;;;;;2.30;1.10;;;;;;;9.27;94.11;95400.91;5047722;28;20207;-77
2024/03/16 01:48:41;;;;;;;2.13;0.90;;;;;;;9.26;94.99;95405.28;5079093;28;20208;-77
2024/03/16 01:51:07;;;;;;;3.17;1.07;;;;;;;9.27;94.91;95393.94;5077987;28;20211;-77
2024/03/16 01:53:33;;;;;;;1.83;0.70;;;;;;;9.12;95.44;95397.16;5077103;28;20681;-77
2024/03/16 01:55:58;;;;;;;2.57;1.10;;;;;;;9.07;96.27;95400.19;5077318;28;20201;-77
2024/03/16 01:58:23;;;;;;;5.00;1.07;;;;;;;9.14;95.46;95409.00;5078456;28;20200;-78
2024/03/16 02:00:49;;;;;;;3.20;1.00;;;;;;;9.13;95.84;95394.44;5079128;28;20184;-76
2024/03/16 02:03:14;;;;;;;3.73;1.27;;;;;;;9.12;96.21;95392.81;5077296;28;20206;-77
2024/03/16 02:05:41;;;;;;;4.83;1.27;;;;;;;9.44;94.20;95391.56;5077075;28;20188;-78
2024/03/16 02:08:07;;;;;;;3.63;1.30;;;;;;;9.36;94.33;95400.91;5062789;28;20701;-77
2024/03/16 02:10:33;;;;;;;4.43;1.00;;;;;;;9.58;92.98;95391.09;5061398;28;20195;-76
2024/03/16 02:12:58;;;;;;;3.97;1.23;;;;;;;9.65;92.75;95384.38;5074780;28;20181;-78
2024/03/16 02:15:23;;;;;;;5.70;0.80;;;;;;;9.52;92.83;95381.28;5077979;28;20188;-78
2024/03/16 02:17:50;;;;;;;1.73;0.90;;;;;;;9.46;93.43;95387.06;5076519;28;20625;-77
2024/03/16 02:20:15;;;;;;;5.23;0.90;;;;;;;9.31;94.12;95382.34;5075230;28;20199;-77
2024/03/16 02:22:41;;;;;;;3.47;1.20;;;;;;;9.44;94.66;95382.00;5092536;28;20192;-77
2024/03/16 02:25:08;;;;;;;2.83;1.00;;;;;;;9.55;92.97;95373.25;5078215;28;20589;-76
2024/03/16 02:27:33;;;;;;;2.90;1.03;;;;;;;9.63;92.98;95383.69;5094189;28;20212;-77
2024/03/16 02:29:59;;;;;;;2.33;0.97;;;;;;;9.50;93.16;95378.03;5075385;28;20199;-76
2024/03/16 02:32:24;;;;;;;5.57;0.87;;;;;;;9.58;93.24;95373.75;5076447;28;20188;-77
2024/03/16 02:34:50;;;;;;;1.63;1.10;;;;;;;9.57;92.98;95381.69;5096083;28;20216;-77
2024/03/16 02:37:16;;;;;;;3.43;1.10;;;;;;;9.20;95.17;95390.31;5059958;28;20236;-78
2024/03/16 02:39:41;;;;;;;1.87;0.80;;;;;;;9.57;93.06;95381.69;5058913;28;20582;-76
2024/03/16 02:42:06;;;;;;;3.83;0.70;;;;;;;9.55;93.49;95388.78;5074086;28;20263;-78
2024/03/16 02:44:32;;;;;;;3.30;1.30;;;;;;;9.45;94.08;95390.59;5072993;28;20578;-78
2024/03/16 02:47:00;;;;;;;3.80;0.80;;;;;;;9.35;94.82;95383.69;5094078;28;20628;-77
2024/03/16 02:49:28;;;;;;;2.57;0.80;;;;;;;9.61;93.52;95388.19;5075475;28;20291;-77
2024/03/16 02:51:54;;;;;;;1.70;0.80;;;;;;;9.38;94.08;95392.97;5098214;28;20188;-77
2024/03/16 02:54:19;;;;;;;4.30;0.90;;;;;;;9.52;94.29;95396.84;5079858;28;20196;-77
2024/03/16 02:56:45;;;;;;;2.07;0.90;;;;;;;9.60;94.01;95407.31;5079124;28;20866;-77
2024/03/16 02:59:11;;;;;;;3.60;1.07;;;;;;;9.62;94.03;95413.97;5083001;28;20204;-78
2024/03/16 03:01:37;;;;;;;2.83;0.90;;;;;;;9.79;93.17;95414.16;5100522;28;20224;-77
2024/03/16 03:04:05;;;;;;;3.20;1.10;;;;;;;9.59;94.64;95416.03;5099064;28;20554;-77
2024/03/16 03:06:30;;;;;;;8.13;1.33;;;;;;;9.72;93.97;95424.31;5098652;28;20200;-77
2024/03/16 03:08:56;;;;;;;4.03;1.23;;;;;;;9.72;94.31;95429.50;5098707;28;20211;-77
2024/03/16 03:11:21;;;;;;;5.87;1.40;;;;;;;9.73;95.11;95419.94;5082934;28;20585;-77
2024/03/16 03:13:50;;;;;;;3.60;1.20;;;;;;;9.78;94.63;95428.91;5100402;28;20221;-77
2024/03/16 03:16:23;;;;;;;2.83;1.00;;;;;;;9.86;94.58;95423.00;5065607;28;20677;-76
2024/03/16 03:18:50;;;;;;;2.57;1.20;;;;;;;9.90;94.41;95424.34;5064501;28;20188;-77
2024/03/16 03:21:16;;;;;;;2.53;1.20;;;;;;;9.95;94.12;95427.28;5062451;28;20188;-77
2024/03/16 03:23:42;;;;;;;1.60;1.10;;;;;;;9.91;93.98;95426.78;5065774;28;20269;-76
2024/03/16 03:26:08;;;;;;;1.77;1.00;;;;;;;9.77;93.83;95424.69;5083466;28;20208;-77
2024/03/16 03:28:35;;;;;;;1.93;0.93;;;;;;;9.91;92.90;95433.75;5082950;28;20299;-77
2024/03/16 03:31:01;;;;;;;2.30;1.00;;;;;;;9.88;92.87;95437.44;5081313;28;20211;-77
2024/03/16 03:33:26;;;;;;;2.13;0.87;;;;;;;9.81;93.04;95428.63;5079997;28;20259;-77
2024/03/16 03:35:51;;;;;;;1.20;0.80;;;;;;;9.80;92.42;95437.34;5064736;28;20208;-77
2024/03/16 03:38:17;;;;;;;0.90;0.63;;;;;;;9.77;91.54;95439.41;5100942;28;20219;-77
2024/03/16 03:40:42;;;;;;;0.63;0.63;;;;;;;9.73;91.12;95438.91;5082620;28;20191;-77
2024/03/16 03:43:17;;;;;;;2.30;0.60;;;;;;;9.78;90.31;95446.22;5081887;28;20203;-77
2024/03/16 03:50:49;;;;;;;1.63;0.40;;;;;;;9.54;89.89;95457.13;5084104;28;20196;-77
2024/03/16 03:53:18;;;;;;;0.80;0.67;;;;;;;9.58;89.80;95453.31;5081382;28;20195;-77
2024/03/16 03:55:44;;;;;;;0.57;0.47;;;;;;;9.46;90.53;95457.06;5099037;28;20199;-77
2024/03/16 03:58:09;;;;;;;1.33;0.83;;;;;;;9.60;89.87;95457.38;5085882;28;20645;-77
2024/03/16 04:00:34;;;;;;;1.97;0.60;;;;;;;9.32;90.24;95459.13;5072868;28;20180;-77
2024/03/16 04:03:00;;;;;;;2.07;0.67;;;;;;;9.34;90.36;95459.81;5068371;28;20243;-77
2024/03/16 04:05:26;;;;;;;2.07;0.50;;;;;;;9.41;89.99;95464.44;5067471;28;20180;-77
2024/03/16 04:07:52;;;;;;;0.50;0.40;;;;;;;9.30;89.83;95453.28;5083956;28;20208;-77
2024/03/16 04:10:18;;;;;;;0.70;0.40;;;;;;;9.48;89.29;95449.94;5068738;28;20189;-77
2024/03/16 04:12:44;;;;;;;0.70;0.70;;;;;;;9.35;89.98;95453.66;5101356;28;20185;-77
2024/03/16 04:15:09;;;;;;;1.73;0.40;;;;;;;8.96;91.64;95463.31;5066949;28;20184;-77
2024/03/16 04:17:35;;;;;;;0.20;0.20;;;;;;;9.20;90.76;95460.28;5083875;28;20266;-77
2024/03/16 04:20:00;;;;;;;1.13;0.20;;;;;;;9.14;90.89;95468.59;5085805;28;20177;-77
2024/03/16 04:22:25;;;;;;;2.07;0.30;;;;;;;9.17;90.53;95457.94;5066857;28;20184;-77
2024/03/16 04:24:51;;;;;;;0.33;0.30;;;;;;;9.01;90.86;95458.56;5058737;28;20196;-77
2024/03/16 04:27:16;;;;;;;1.03;0.37;;;;;;;9.34;89.81;95457.22;5061197;28;20215;-77
2024/03/16 04:29:41;;;;;;;0.57;0.23;;;;;;;9.19;89.56;95458.66;5060140;28;20230;-77
2024/03/16 04:32:07;;;;;;;0.17;0.10;;;;;;;9.32;89.26;95453.13;5060520;28;20196;-77
2024/03/16 04:34:32;;;;;;;0.47;0.20;;;;;;;9.15;89.67;95456.47;5094327;28;20192;-78
2024/03/16 04:36:57;;;;;;;1.43;0.50;;;;;;;9.09;89.54;95461.22;5077541;28;20208;-77
2024/03/16 04:39:23;;;;;;;0.63;0.40;;;;;;;9.09;89.71;95461.22;5060779;28;20188;-77
2024/03/16 04:41:50;;;;;;;0.97;0.50;;;;;;;8.95;90.38;95471.25;5077665;28;20253;-77
2024/03/16 04:44:16;;;;;;;0.70;0.40;;;;;;;9.12;89.90;95464.53;5059482;28;20298;-77
2024/03/16 04:46:41;;;;;;;1.40;0.40;;;;;;;9.24;88.88;95461.63;5063094;28;20258;-77
2024/03/16 04:49:07;;;;;;;0.40;0.30;;;;;;;9.06;90.02;95471.06;5089039;28;20212;-78
2024/03/16 04:51:33;;;;;;;0.93;0.40;;;;;;;9.13;89.73;95472.16;5060162;28;20194;-77
2024/03/16 04:53:58;;;;;;;0.43;0.30;;;;;;;9.14;89.20;95473.78;5075631;28;20184;-77
2024/03/16 04:56:23;;;;;;;0.40;0.40;;;;;;;9.18;88.64;95467.34;5058055;28;20231;-77
2024/03/16 04:58:49;;;;;;;0.77;0.30;;;;;;;9.12;89.07;95477.47;5077066;28;20180;-78
2024/03/16 05:01:16;;;;;;;0.77;0.50;;;;;;;9.24;87.70;95481.53;5076830;28;20238;-77
2024/03/16 05:03:42;;;;;;;0.77;0.40;;;;;;;9.11;88.33;95476.66;5059798;28;20207;-76
2024/03/16 05:06:07;;;;;;;0.47;0.40;;;;;;;9.20;88.14;95477.59;5076601;28;20755;-77
2024/03/16 05:08:33;;;;;;;0.40;0.30;;;;;;;9.22;87.93;95481.66;5074605;28;20235;-77
2024/03/16 05:10:58;;;;;;;0.57;0.30;;;;;;;9.12;88.19;95480.88;5094344;28;20176;-77
2024/03/16 05:13:26;;;;;;;1.20;0.40;;;;;;;9.13;88.73;95477.34;5074202;28;20242;-77
2024/03/16 05:15:52;;;;;;;0.40;0.40;;;;;;;8.97;89.56;95485.69;5094497;28;20197;-78
2024/03/16 05:18:17;;;;;;;0.50;0.33;;;;;;;8.99;90.24;95480.34;5074844;28;20191;-77
2024/03/16 05:20:43;;;;;;;0.30;0.30;;;;;;;9.23;89.13;95483.31;5059914;28;20338;-77
2024/03/16 05:23:08;;;;;;;0.97;0.50;;;;;;;9.16;89.59;95482.22;5072668;28;20195;-77
2024/03/16 05:25:33;;;;;;;1.47;0.50;;;;;;;9.26;89.62;95477.00;5076356;28;20202;-77
2024/03/16 05:27:59;;;;;;;2.70;0.67;;;;;;;9.19;90.15;95487.16;5059518;28;20254;-77
2024/03/16 05:30:24;;;;;;;0.60;0.60;;;;;;;9.28;89.86;95481.13;5074163;28;20238;-77
2024/03/16 05:32:49;;;;;;;1.30;0.80;;;;;;;9.35;90.16;95482.16;5093419;28;20184;-77
2024/03/16 05:35:16;;;;;;;1.03;0.50;;;;;;;9.33;90.18;95483.28;5093346;28;20195;-78
2024/03/16 05:37:41;;;;;;;3.20;1.00;;;;;;;9.36;90.06;95478.63;5059218;28;20261;-77
2024/03/16 05:40:10;;;;;;;5.57;0.90;;;;;;;9.42;90.13;95485.00;5057375;28;20721;-77
2024/03/16 05:42:37;;;;;;;2.20;0.77;;;;;;;9.39;90.55;95487.91;5043503;28;20215;-77
2024/03/16 05:45:03;;;;;;;1.13;0.70;;;;;;;9.36;91.05;95482.97;5071927;28;20227;-77
2024/03/16 05:47:28;;;;;;;3.43;0.70;;;;;;;9.37;90.86;95489.81;5075935;28;20677;-77
2024/03/16 05:49:54;;;;;;;2.30;0.60;;;;;;;9.38;90.60;95490.63;5094524;28;20190;-78
2024/03/16 05:52:19;;;;;;;3.17;0.60;;;;;;;9.35;90.45;95486.53;5074434;28;20778;-77
2024/03/16 05:54:45;;;;;;;2.13;0.63;;;;;;;9.41;89.37;95493.75;5072269;28;20259;-76
2024/03/16 05:57:10;;;;;;;2.30;0.60;;;;;;;9.30;90.04;95491.34;5091036;28;20204;-76
2024/03/16 05:59:35;;;;;;;1.70;0.90;;;;;;;9.41;89.70;95490.34;5069257;28;20268;-77
2024/03/16 06:02:01;;;;;;;4.13;0.80;;;;;;;9.51;88.95;95496.31;5073094;28;20199;-76
2024/03/16 06:04:26;;;;;;;1.83;0.80;;;;;;;9.28;90.24;95508.81;5056282;28;20177;-76
2024/03/16 06:06:51;;;;;;;2.20;0.63;;;;;;;9.38;90.07;95507.00;5069871;28;20208;-76
2024/03/16 06:09:17;;;;;;;5.47;1.10;;;;;;;9.65;88.77;95498.44;5068119;28;20208;-77
2024/03/16 06:11:42;;;;;;;1.07;0.60;;;;;;;9.62;89.06;95525.44;5089340;28;20188;-75
2024/03/16 06:14:10;;;;;;;3.20;0.80;;;;;;;9.72;89.21;95520.25;5069616;28;20211;-77
2024/03/16 06:16:37;;;;;;;2.53;0.70;;;;;;;9.86;88.97;95529.31;5085283;28;20762;-77
2024/03/16 06:19:04;;;;;;;3.20;0.90;;;;;;;9.94;88.64;95530.25;5066279;28;20196;-76
2024/03/16 06:21:29;;;;;;;3.93;0.80;;;;;;;9.81;89.26;95537.56;5071888;28;20192;-77
2024/03/16 06:23:54;;;;;;;2.83;0.83;;;;;;;9.82;89.75;95539.19;5055601;28;20198;-76
2024/03/16 06:26:20;;;;;;;2.23;0.80;;;;;;;9.67;90.29;95543.19;5055557;28;20200;-77
2024/03/16 06:28:54;;;;;;;3.43;1.40;;;;;;;9.87;89.61;95542.16;5055934;28;20212;-77
2024/03/16 06:31:31;;;;;;;3.17;1.00;;;;;;;9.88;89.88;95550.75;5072914;28;20187;-77
2024/03/16 06:33:57;;;;;;;2.53;0.80;;;;;;;9.90;89.35;95541.88;5070965;28;20763;-77
2024/03/16 06:36:23;;;;;;;3.40;0.90;;;;;;;9.92;89.61;95547.72;5055629;28;20228;-75
2024/03/16 06:38:48;;;;;;;2.70;1.10;;;;;;;9.90;89.79;95562.63;5070001;28;20238;-77
2024/03/16 06:41:14;;;;;;;1.47;0.70;;;;;;;9.96;89.46;95557.81;5051994;28;20187;-76
2024/03/16 06:43:39;;;;;;;4.67;1.33;;;;;;;10.03;89.07;95564.06;5051324;28;20189;-76
2024/03/16 06:46:05;;;;;;;2.77;1.67;;;;;;;10.07;89.16;95570.59;5070760;28;20196;-77
2024/03/16 06:48:31;;;;;;;3.13;1.30;;;;;;;10.08;88.83;95569.66;5089876;28;20838;-76
2024/03/16 06:50:56;;;;;;;2.07;1.00;;;;;;;10.05;89.62;95575.94;5071910;28;20191;-76
2024/03/16 06:53:22;;;;;;;1.27;1.10;;;;;;;10.15;89.08;95588.84;5070116;28;20237;-76
2024/03/16 06:55:49;;;;;;;2.97;0.70;;;;;;;10.01;90.24;95586.75;5054579;28;20187;-77
2024/03/16 06:58:15;;;;;;;1.53;0.93;;;;;;;9.90;91.34;95593.75;5066772;28;20211;-77
2024/03/16 07:00:40;;;;;;;1.83;1.40;;;;;;;10.26;90.47;95593.91;5090179;28;20216;-76
2024/03/16 07:03:05;;;;;;;2.77;0.83;;;;;;;10.05;91.25;95599.28;5070709;28;20180;-76
2024/03/16 07:05:31;;;;;;;1.47;0.60;;;;;;;10.35;89.83;95595.63;5053954;28;20339;-77
2024/03/16 07:07:57;;;;;;;2.53;0.70;;;;;;;10.12;91.10;95594.34;5086261;28;20253;-76
2024/03/16 07:10:23;;;;;;;1.63;0.80;;;;;;;10.10;91.74;95609.25;5071799;28;20180;-76
2024/03/16 07:12:48;;;;;;;0.83;0.57;;;;;;;10.26;90.90;95600.88;5055052;28;20674;-76
2024/03/16 07:15:15;;;;;;;2.03;0.70;;;;;;;10.14;91.35;95602.78;5069895;28;20651;-76
2024/03/16 07:17:42;;;;;;;3.50;0.60;;;;;;;10.08;92.70;95609.38;5052781;28;20216;-77
2024/03/16 07:20:10;;;;;;;1.40;0.60;;;;;;;10.20;91.36;95610.00;5072360;28;20185;-77
2024/03/16 07:22:36;;;;;;;1.47;0.37;;;;;;;10.50;90.20;95608.91;5071056;28;20263;-78
2024/03/16 07:25:01;;;;;;;1.90;0.60;;;;;;;10.62;88.60;95617.34;5050145;28;20280;-75
2024/03/16 07:27:27;;;;;;;1.40;0.70;;;;;;;10.93;86.65;95621.22;5088140;28;20612;-76
2024/03/16 07:29:52;;;;;;;1.73;0.53;;;;;;;10.82;87.24;95629.25;5070594;28;20212;-77
2024/03/16 07:32:18;;;;;;;3.03;0.60;;;;;;;10.91;86.51;95632.75;5088692;28;20184;-76
2024/03/16 07:34:43;;;;;;;2.50;0.70;;;;;;;11.17;85.44;95632.81;5087151;28;20183;-76
2024/03/16 07:37:08;;;;;;;1.90;0.70;;;;;;;11.17;84.34;95638.03;5090350;28;20227;-76
2024/03/16 07:39:34;;;;;;;1.40;0.70;;;;;;;11.18;84.93;95650.88;5070842;28;20283;-76
2024/03/16 07:41:59;;;;;;;2.53;1.00;;;;;;;11.42;83.60;95642.47;5070183;28;20836;-76
2024/03/16 07:44:24;;;;;;;2.63;0.80;;;;;;;11.37;84.04;95649.88;5070361;28;20625;-77
2024/03/16 07:46:50;;;;;;;3.57;0.97;;;;;;;11.64;82.88;95654.97;5090221;28;20212;-76
2024/03/16 07:49:15;;;;;;;3.77;1.20;;;;;;;11.58;83.34;95652.19;5090198;28;20209;-77
2024/03/16 07:51:43;;;;;;;4.33;1.77;;;;;;;11.50;83.21;95658.13;5075097;28;20194;-77
2024/03/16 07:54:11;;;;;;;2.67;0.90;;;;;;;11.66;83.21;95665.25;5075041;28;20188;-77
2024/03/16 07:56:37;;;;;;;2.47;0.93;;;;;;;11.69;83.30;95669.31;5057335;28;20284;-77
2024/03/16 07:59:03;;;;;;;1.40;0.80;;;;;;;12.03;81.47;95672.03;5071138;28;20697;-76
2024/03/16 08:01:29;;;;;;;7.17;2.90;;;;;;;11.59;83.13;95672.84;5074833;28;20582;-77
2024/03/16 08:03:54;;;;;;;3.40;1.53;;;;;;;11.64;82.42;95667.97;5074123;28;20204;-77
2024/03/16 08:06:20;;;;;;;3.63;1.10;;;;;;;11.25;83.89;95679.69;5071311;28;20201;-77
2024/03/16 08:08:46;;;;;;;4.40;1.00;;;;;;;11.35;83.54;95672.63;5059584;28;20212;-77
2024/03/16 08:11:11;;;;;;;2.33;0.70;;;;;;;11.24;84.34;95675.47;5075854;28;20189;-77
2024/03/16 08:13:36;;;;;;;1.10;0.70;;;;;;;11.19;84.33;95675.06;5073598;28;20197;-77
2024/03/16 08:16:02;;;;;;;1.50;0.80;;;;;;;11.39;83.86;95678.34;5060328;28;20208;-77
2024/03/16 08:18:27;;;;;;;2.77;1.00;;;;;;;11.57;82.95;95676.53;5074587;28;20283;-77
2024/03/16 08:20:57;;;;;;;1.27;0.63;;;;;;;11.44;83.14;95681.31;5094979;28;20657;-77
2024/03/16 08:23:23;;;;;;;0.93;0.70;;;;;;;11.97;81.66;95694.28;5075240;28;20256;-77
2024/03/16 08:25:48;;;;;;;2.33;0.90;;;;;;;11.60;82.88;95695.28;5075078;28;20188;-77
2024/03/16 08:28:14;;;;;;;2.37;0.90;;;;;;;11.74;81.53;95696.50;5076583;28;20283;-77
2024/03/16 08:30:39;;;;;;;4.67;0.87;;;;;;;11.59;82.81;95701.44;5069924;28;20657;-77
2024/03/16 08:33:04;;;;;;;2.13;0.80;;;;;;;11.28;83.04;95706.19;5074171;28;20194;-76
2024/03/16 08:35:32;;;;;;;1.83;0.70;;;;;;;11.37;82.26;95714.06;5071011;28;20188;-77
2024/03/16 08:37:57;;;;;;;1.47;1.03;;;;;;;11.42;81.98;95715.28;5094924;28;20188;-77
2024/03/16 08:40:22;;;;;;;3.43;0.83;;;;;;;11.44;81.82;95713.34;5072720;28;20177;-77
2024/03/16 08:42:50;;;;;;;3.97;1.03;;;;;;;11.68;81.01;95723.16;5058449;28;20708;-77
2024/03/16 08:45:16;;;;;;;1.63;0.93;;;;;;;11.63;80.94;95720.16;5094606;28;20657;-77
2024/03/16 08:47:41;;;;;;;1.47;1.00;;;;;;;11.61;80.86;95735.09;5061374;28;20217;-77
2024/03/16 08:50:08;;;;;;;1.20;0.87;;;;;;;11.69;80.14;95727.38;5073467;28;20195;-77
2024/03/16 08:52:33;;;;;;;2.70;1.53;;;;;;;11.77;79.49;95734.44;5093962;28;20192;-77
2024/03/16 08:54:59;;;;;;;4.17;1.60;;;;;;;11.73;79.98;95738.28;5058490;28;20189;-78
2024/03/16 08:57:25;;;;;;;4.60;1.83;;;;;;;11.98;79.22;95734.94;5092334;28;20283;-78
2024/03/16 08:59:53;;;;;;;2.47;1.47;;;;;;;11.94;78.84;95735.41;5072738;28;20211;-78
2024/03/16 09:02:24;;;;;;;5.67;2.00;;;;;;;11.79;78.83;95740.28;5075329;28;20195;-78
2024/03/16 09:04:51;;;;;;;4.17;2.00;;;;;;;12.29;78.36;95737.94;5058837;28;20226;-77
2024/03/16 09:07:16;;;;;;;4.43;2.20;;;;;;;12.44;77.28;95741.59;5076434;28;20205;-78
2024/03/16 09:09:42;;;;;;;3.43;1.60;;;;;;;12.29;76.76;95745.75;5076016;28;20287;-78
2024/03/16 09:12:07;;;;;;;4.67;1.70;;;;;;;12.45;77.29;95739.78;5060991;28;20188;-77
2024/03/16 09:14:33;;;;;;;5.77;1.80;;;;;;;12.32;76.70;95744.63;5057840;28;20223;-78
2024/03/16 09:16:59;;;;;;;4.90;1.70;;;;;;;12.62;76.83;95751.94;5058685;28;20211;-77
2024/03/16 09:19:24;;;;;;;4.13;1.40;;;;;;;12.60;76.66;95759.09;5073969;28;20177;-78
2024/03/16 09:21:50;;;;;;;1.97;1.10;;;;;;;11.89;78.76;95754.88;5077410;28;20650;-78
2024/03/16 09:24:16;;;;;;;2.03;1.27;;;;;;;12.50;78.65;95755.78;5060664;28;20184;-78
2024/03/16 09:26:41;;;;;;;2.67;0.93;;;;;;;12.60;77.93;95756.50;5096512;28;20204;-78
2024/03/16 09:29:07;;;;;;;1.53;0.60;;;;;;;12.65;76.54;95761.25;5061037;28;20222;-78
2024/03/16 09:31:32;;;;;;;3.23;1.20;;;;;;;12.69;78.24;95763.38;5093034;28;20180;-78
2024/03/16 09:33:59;;;;;;;1.43;0.90;;;;;;;12.78;77.37;95753.81;5092357;28;20199;-78
2024/03/16 09:36:24;;;;;;;1.90;0.80;;;;;;;13.02;78.08;95766.97;5077184;28;20212;-78
2024/03/16 09:38:50;;;;;;;1.80;0.90;;;;;;;13.12;76.76;95764.22;5077782;28;20181;-77
2024/03/16 09:41:19;;;;;;;1.40;0.87;;;;;;;13.11;76.76;95773.03;5074685;28;20184;-78
2024/03/16 09:43:45;;;;;;;1.47;0.80;;;;;;;13.04;76.89;95777.22;5075052;28;20213;-78
2024/03/16 09:46:10;;;;;;;0.40;0.40;;;;;;;12.77;77.46;95776.44;5060972;28;20208;-78
2024/03/16 09:48:37;;;;;;;1.93;0.90;;;;;;;13.03;76.42;95786.03;5074119;28;20246;-77
2024/03/16 09:51:04;;;;;;;0.87;0.57;;;;;;;12.72;77.47;95778.72;5077781;28;20703;-78
2024/03/16 09:53:31;;;;;;;1.63;0.50;;;;;;;12.90;78.33;95783.03;5075533;28;20196;-78
2024/03/16 09:56:09;;;;;;;2.40;0.60;;;;;;;12.68;77.93;95792.19;5076581;28;20585;-78
2024/03/16 09:58:34;;;;;;;3.43;1.67;;;;;;;12.91;77.95;95787.28;5074655;28;20350;-78
2024/03/16 10:01:03;;;;;;;4.27;2.50;;;;;;;12.86;78.62;95779.91;5077307;28;20233;-77
2024/03/16 10:03:28;;;;;;;9.80;6.00;;;;;;;12.91;78.21;95789.88;5076820;28;20184;-76
2024/03/16 10:05:54;;;;;;;8.20;4.50;;;;;;;12.54;78.86;95785.75;5060902;28;20246;-78
2024/03/16 10:08:20;;;;;;;1.03;0.90;;;;;;;12.46;77.79;95790.94;5060648;28;20208;-78
2024/03/16 10:10:47;;;;;;;1.57;0.93;;;;;;;12.97;76.93;95792.66;5074400;28;20192;-78
2024/03/16 10:13:12;;;;;;;0.70;0.63;;;;;;;12.97;77.19;95797.06;5077168;28;20643;-77
2024/03/16 10:15:44;;;;;;;1.93;1.00;;;;;;;13.10;75.96;95797.47;5059512;28;20188;-78
2024/03/16 10:18:11;;;;;;;2.17;0.80;;;;;;;12.94;76.99;95805.22;5077412;28;20268;-78
2024/03/16 10:20:36;;;;;;;1.00;0.80;;;;;;;12.96;76.45;95805.84;5076017;28;20189;-78
2024/03/16 10:23:01;;;;;;;1.53;0.83;;;;;;;13.24;75.38;95815.13;5095172;28;20193;-78
2024/03/16 10:25:27;;;;;;;1.67;0.90;;;;;;;11.96;79.01;95821.97;5074345;28;20185;-78
2024/03/16 10:27:54;;;;;;;1.97;0.90;;;;;;;12.50;77.34;95814.88;5060652;28;20208;-77
2024/03/16 10:30:20;;;;;;;2.50;1.10;;;;;;;12.38;76.89;95824.75;5060957;28;20224;-78
2024/03/16 10:32:49;;;;;;;1.63;1.10;;;;;;;12.31;76.79;95821.91;5075750;28;20253;-78
2024/03/16 10:35:20;;;;;;;2.07;0.90;;;;;;;12.44;76.29;95827.53;5072243;28;20198;-78
2024/03/16 10:37:45;;;;;;;1.70;0.90;;;;;;;12.40;77.08;95830.63;5074633;28;20200;-79
2024/03/16 10:40:21;;;;;;;2.07;0.93;;;;;;;12.41;77.52;95829.63;5069993;28;20203;-77
2024/03/16 10:42:50;;;;;;;2.43;0.90;;;;;;;12.47;75.95;95836.84;5088092;28;20199;-79
2024/03/16 10:45:16;;;;;;;2.27;1.10;;;;;;;12.65;76.18;95832.41;5069880;28;20184;-77
2024/03/16 10:47:50;;;;;;;1.97;1.00;;;;;;;13.03;74.56;95828.53;5069967;28;20212;-80
2024/03/16 10:50:18;;;;;;;0.80;0.80;;;;;;;12.98;74.42;95824.75;5050822;28;20184;-80
2024/03/16 10:52:43;;;;;;;0.93;0.93;;;;;;;12.84;75.21;95838.38;5092506;28;20184;-78
2024/03/16 10:55:15;;;;;;;1.27;0.80;;;;;;;13.45;72.57;95833.00;5073888;28;20177;-80
2024/03/16 10:57:44;;;;;;;1.20;1.10;;;;;;;13.42;73.42;95829.88;5058422;28;20271;-81
2024/03/16 11:00:34;;;;;;;1.20;0.77;;;;;;;13.10;73.07;95835.75;5049171;28;20176;-76
2024/03/16 11:03:07;;;;;;;2.17;0.77;;;;;;;12.90;75.33;95838.59;5054176;28;20189;-77
2024/03/16 11:05:34;;;;;;;1.37;0.90;;;;;;;12.85;76.16;95830.41;5068157;28;20188;-77
2024/03/16 11:08:00;;;;;;;1.50;1.03;;;;;;;12.76;78.24;95837.38;5070809;28;20242;-76
2024/03/16 11:10:42;;;;;;;1.97;1.00;;;;;;;13.11;77.04;95840.81;5072626;28;20702;-77
2024/03/16 11:13:19;;;;;;;2.17;1.20;;;;;;;12.68;79.00;95839.09;5093026;28;20191;-77
2024/03/16 11:15:45;;;;;;;1.80;0.83;;;;;;;12.81;78.78;95843.88;5055916;28;20211;-77
2024/03/16 11:18:20;;;;;;;1.40;0.60;;;;;;;12.92;77.95;95843.66;5077423;28;20268;-81
2024/03/16 11:20:55;;;;;;;1.10;0.70;;;;;;;12.80;77.76;95842.25;5092372;28;20259;-76
2024/03/16 11:23:25;;;;;;;3.13;0.80;;;;;;;12.69;79.27;95841.56;5069877;28;20192;-77
2024/03/16 11:25:51;;;;;;;27.20;17.37;;;;;;;12.62;79.90;95837.91;5073236;28;20585;-76
2024/03/16 11:28:17;;;;;;;1.40;1.00;;;;;;;12.54;78.21;95839.66;5063689;28;20211;-78
2024/03/16 11:30:46;;;;;;;2.33;1.10;;;;;;;13.05;77.53;95851.84;5077167;28;20268;-77
2024/03/16 11:33:18;;;;;;;1.83;1.43;;;;;;;13.11;77.02;95859.06;5057938;28;20203;-76
2024/03/16 11:35:44;;;;;;;2.60;2.43;;;;;;;12.90;77.84;95853.41;5059234;28;20195;-77
2024/03/16 11:38:16;;;;;;;1.10;1.00;;;;;;;13.31;76.65;95855.25;5076026;28;20204;-77
2024/03/16 11:40:48;;;;;;;1.67;1.17;;;;;;;13.20;76.97;95860.75;5070104;28;20602;-76